sensor_id;sensor_type;location;lat;lon;timestamp;P1;durP1;ratioP1;P2;durP2;ratioP2
64199;SDS011;50516;52.272;5.136;2023-03-31T00:01:32;20.83;;;4.88;;
64199;SDS011;50516;52.272;5.136;2023-03-31T00:04:01;23.10;;;6.07;;
64199;SDS011;50516;52.272;5.136;2023-03-31T00:06:30;31.58;;;5.82;;
64199;SDS011;50516;52.272;5.136;2023-03-31T00:09:02;32.05;;;6.65;;
64199;SDS011;50516;52.272;5.136;2023-03-31T00:11:29;25.05;;;4.88;;
64199;SDS011;50516;52.272;5.136;2023-03-31T00:13:54;27.42;;;5.90;;
64199;SDS011;50516;52.272;5.136;2023-03-31T00:16:20;23.63;;;4.85;;
64199;SDS011;50516;52.272;5.136;2023-03-31T00:18:45;24.23;;;4.90;;
64199;SDS011;50516;52.272;5.136;2023-03-31T00:21:14;22.35;;;5.68;;
64199;SDS011;50516;52.272;5.136;2023-03-31T00:23:54;29.63;;;5.60;;
64199;SDS011;50516;52.272;5.136;2023-03-31T00:26:21;23.98;;;5.40;;
64199;SDS011;50516;52.272;5.136;2023-03-31T00:28:47;22.20;;;4.90;;
64199;SDS011;50516;52.272;5.136;2023-03-31T00:31:14;26.73;;;7.03;;
64199;SDS011;50516;52.272;5.136;2023-03-31T00:33:39;31.92;;;6.20;;
64199;SDS011;50516;52.272;5.136;2023-03-31T00:36:05;27.77;;;5.82;;
64199;SDS011;50516;52.272;5.136;2023-03-31T00:38:33;24.90;;;5.03;;
64199;SDS011;50516;52.272;5.136;2023-03-31T00:41:00;25.38;;;4.80;;
64199;SDS011;50516;52.272;5.136;2023-03-31T00:43:30;21.00;;;5.03;;
64199;SDS011;50516;52.272;5.136;2023-03-31T00:48:47;17.20;;;4.63;;
64199;SDS011;50516;52.272;5.136;2023-03-31T00:51:16;26.52;;;5.43;;
64199;SDS011;50516;52.272;5.136;2023-03-31T00:53:47;18.83;;;4.75;;
64199;SDS011;50516;52.272;5.136;2023-03-31T00:56:19;22.52;;;5.72;;
64199;SDS011;50516;52.272;5.136;2023-03-31T00:58:45;22.58;;;5.28;;
64199;SDS011;50516;52.272;5.136;2023-03-31T01:01:13;19.65;;;4.90;;
64199;SDS011;50516;52.272;5.136;2023-03-31T01:03:41;22.95;;;5.63;;
64199;SDS011;50516;52.272;5.136;2023-03-31T01:06:10;19.05;;;5.18;;
64199;SDS011;50516;52.272;5.136;2023-03-31T01:08:37;20.60;;;5.75;;
64199;SDS011;50516;52.272;5.136;2023-03-31T01:11:05;18.73;;;4.90;;
64199;SDS011;50516;52.272;5.136;2023-03-31T01:13:33;18.13;;;5.72;;
64199;SDS011;50516;52.272;5.136;2023-03-31T01:16:01;19.05;;;5.28;;
64199;SDS011;50516;52.272;5.136;2023-03-31T01:18:27;15.25;;;4.10;;
64199;SDS011;50516;52.272;5.136;2023-03-31T01:29:32;14.77;;;4.65;;
64199;SDS011;50516;52.272;5.136;2023-03-31T01:34:49;12.40;;;4.10;;
64199;SDS011;50516;52.272;5.136;2023-03-31T01:40:32;16.33;;;5.30;;
64199;SDS011;50516;52.272;5.136;2023-03-31T01:51:48;12.27;;;3.78;;
64199;SDS011;50516;52.272;5.136;2023-03-31T01:59:35;15.00;;;4.00;;
64199;SDS011;50516;52.272;5.136;2023-03-31T02:02:06;16.13;;;4.38;;
64199;SDS011;50516;52.272;5.136;2023-03-31T02:04:56;12.52;;;4.38;;
64199;SDS011;50516;52.272;5.136;2023-03-31T02:07:33;13.98;;;4.10;;
64199;SDS011;50516;52.272;5.136;2023-03-31T02:10:03;16.20;;;4.22;;
64199;SDS011;50516;52.272;5.136;2023-03-31T02:12:32;16.38;;;4.95;;
64199;SDS011;50516;52.272;5.136;2023-03-31T02:15:00;12.20;;;4.53;;
64199;SDS011;50516;52.272;5.136;2023-03-31T02:17:30;16.58;;;5.03;;
64199;SDS011;50516;52.272;5.136;2023-03-31T02:19:57;19.15;;;5.20;;
64199;SDS011;50516;52.272;5.136;2023-03-31T02:22:26;11.95;;;5.32;;
64199;SDS011;50516;52.272;5.136;2023-03-31T02:24:55;19.23;;;4.93;;
64199;SDS011;50516;52.272;5.136;2023-03-31T02:27:24;22.33;;;6.22;;
64199;SDS011;50516;52.272;5.136;2023-03-31T02:29:52;17.05;;;5.43;;
64199;SDS011;50516;52.272;5.136;2023-03-31T02:35:01;16.45;;;5.28;;
64199;SDS011;50516;52.272;5.136;2023-03-31T02:37:27;17.25;;;5.95;;
64199;SDS011;50516;52.272;5.136;2023-03-31T02:39:56;15.88;;;5.13;;
64199;SDS011;50516;52.272;5.136;2023-03-31T02:42:24;20.13;;;5.97;;
64199;SDS011;50516;52.272;5.136;2023-03-31T02:44:49;14.30;;;5.72;;
64199;SDS011;50516;52.272;5.136;2023-03-31T02:47:16;16.38;;;5.47;;
64199;SDS011;50516;52.272;5.136;2023-03-31T02:49:45;15.57;;;5.35;;
64199;SDS011;50516;52.272;5.136;2023-03-31T03:04:21;14.70;;;5.13;;
64199;SDS011;50516;52.272;5.136;2023-03-31T03:15:27;16.88;;;5.65;;
64199;SDS011;50516;52.272;5.136;2023-03-31T03:17:57;17.48;;;5.18;;
64199;SDS011;50516;52.272;5.136;2023-03-31T03:20:22;17.45;;;6.63;;
64199;SDS011;50516;52.272;5.136;2023-03-31T03:22:48;17.25;;;5.10;;
64199;SDS011;50516;52.272;5.136;2023-03-31T03:25:14;17.92;;;5.50;;
64199;SDS011;50516;52.272;5.136;2023-03-31T03:27:44;16.80;;;5.22;;
64199;SDS011;50516;52.272;5.136;2023-03-31T03:30:11;16.50;;;6.25;;
64199;SDS011;50516;52.272;5.136;2023-03-31T03:32:37;20.67;;;5.75;;
64199;SDS011;50516;52.272;5.136;2023-03-31T03:35:03;15.27;;;5.47;;
64199;SDS011;50516;52.272;5.136;2023-03-31T03:37:29;16.65;;;5.25;;
64199;SDS011;50516;52.272;5.136;2023-03-31T03:39:55;13.20;;;5.47;;
64199;SDS011;50516;52.272;5.136;2023-03-31T03:42:20;20.67;;;6.55;;
64199;SDS011;50516;52.272;5.136;2023-03-31T03:44:45;18.70;;;5.57;;
64199;SDS011;50516;52.272;5.136;2023-03-31T03:47:11;12.25;;;5.40;;
64199;SDS011;50516;52.272;5.136;2023-03-31T03:49:36;23.42;;;6.45;;
64199;SDS011;50516;52.272;5.136;2023-03-31T03:52:02;14.43;;;4.88;;
64199;SDS011;50516;52.272;5.136;2023-03-31T03:54:27;17.98;;;4.82;;
64199;SDS011;50516;52.272;5.136;2023-03-31T03:56:52;15.98;;;5.10;;
64199;SDS011;50516;52.272;5.136;2023-03-31T03:59:18;15.23;;;4.57;;
64199;SDS011;50516;52.272;5.136;2023-03-31T04:01:43;13.05;;;4.68;;
64199;SDS011;50516;52.272;5.136;2023-03-31T04:04:09;15.63;;;4.68;;
64199;SDS011;50516;52.272;5.136;2023-03-31T04:06:34;12.35;;;4.13;;
64199;SDS011;50516;52.272;5.136;2023-03-31T04:08:59;14.63;;;4.63;;
64199;SDS011;50516;52.272;5.136;2023-03-31T04:11:25;15.98;;;4.80;;
64199;SDS011;50516;52.272;5.136;2023-03-31T04:13:52;15.95;;;5.20;;
64199;SDS011;50516;52.272;5.136;2023-03-31T04:16:17;14.00;;;4.45;;
64199;SDS011;50516;52.272;5.136;2023-03-31T04:18:43;13.75;;;4.78;;
64199;SDS011;50516;52.272;5.136;2023-03-31T04:21:13;20.92;;;5.53;;
64199;SDS011;50516;52.272;5.136;2023-03-31T04:23:53;14.05;;;4.25;;
64199;SDS011;50516;52.272;5.136;2023-03-31T04:26:29;16.48;;;5.07;;
64199;SDS011;50516;52.272;5.136;2023-03-31T04:29:06;13.48;;;4.50;;
64199;SDS011;50516;52.272;5.136;2023-03-31T04:31:33;12.52;;;4.13;;
64199;SDS011;50516;52.272;5.136;2023-03-31T04:34:02;14.55;;;4.75;;
64199;SDS011;50516;52.272;5.136;2023-03-31T04:36:31;13.15;;;4.47;;
64199;SDS011;50516;52.272;5.136;2023-03-31T04:38:57;12.05;;;5.25;;
64199;SDS011;50516;52.272;5.136;2023-03-31T04:41:26;9.05;;;3.25;;
64199;SDS011;50516;52.272;5.136;2023-03-31T04:43:51;19.83;;;4.70;;
64199;SDS011;50516;52.272;5.136;2023-03-31T04:46:17;13.23;;;3.72;;
64199;SDS011;50516;52.272;5.136;2023-03-31T04:48:42;11.98;;;4.13;;
64199;SDS011;50516;52.272;5.136;2023-03-31T04:51:08;13.70;;;3.92;;
64199;SDS011;50516;52.272;5.136;2023-03-31T04:53:34;11.80;;;3.42;;
64199;SDS011;50516;52.272;5.136;2023-03-31T04:56:00;8.40;;;3.85;;
64199;SDS011;50516;52.272;5.136;2023-03-31T04:58:26;8.00;;;3.28;;
64199;SDS011;50516;52.272;5.136;2023-03-31T05:00:51;14.85;;;4.05;;
64199;SDS011;50516;52.272;5.136;2023-03-31T05:03:17;12.80;;;3.58;;
64199;SDS011;50516;52.272;5.136;2023-03-31T05:05:43;9.70;;;3.25;;
64199;SDS011;50516;52.272;5.136;2023-03-31T05:08:08;14.60;;;4.15;;
64199;SDS011;50516;52.272;5.136;2023-03-31T05:10:33;15.23;;;4.15;;
64199;SDS011;50516;52.272;5.136;2023-03-31T05:12:59;12.30;;;4.05;;
64199;SDS011;50516;52.272;5.136;2023-03-31T05:15:24;8.75;;;3.30;;
64199;SDS011;50516;52.272;5.136;2023-03-31T05:17:50;10.63;;;3.40;;
64199;SDS011;50516;52.272;5.136;2023-03-31T05:20:16;11.07;;;3.58;;
64199;SDS011;50516;52.272;5.136;2023-03-31T05:22:43;11.50;;;4.13;;
64199;SDS011;50516;52.272;5.136;2023-03-31T05:25:11;15.60;;;3.85;;
64199;SDS011;50516;52.272;5.136;2023-03-31T05:27:42;10.80;;;3.53;;
64199;SDS011;50516;52.272;5.136;2023-03-31T05:30:08;11.68;;;3.65;;
64199;SDS011;50516;52.272;5.136;2023-03-31T05:32:34;11.63;;;4.32;;
64199;SDS011;50516;52.272;5.136;2023-03-31T05:34:59;10.88;;;3.95;;
64199;SDS011;50516;52.272;5.136;2023-03-31T05:37:25;15.70;;;3.70;;
64199;SDS011;50516;52.272;5.136;2023-03-31T05:39:51;13.40;;;3.72;;
64199;SDS011;50516;52.272;5.136;2023-03-31T05:42:16;14.93;;;4.18;;
64199;SDS011;50516;52.272;5.136;2023-03-31T05:44:42;10.88;;;4.38;;
64199;SDS011;50516;52.272;5.136;2023-03-31T05:47:08;9.85;;;3.60;;
64199;SDS011;50516;52.272;5.136;2023-03-31T05:49:33;13.00;;;3.88;;
64199;SDS011;50516;52.272;5.136;2023-03-31T05:51:58;10.45;;;3.42;;
64199;SDS011;50516;52.272;5.136;2023-03-31T05:54:24;10.50;;;3.53;;
64199;SDS011;50516;52.272;5.136;2023-03-31T05:56:49;6.82;;;3.17;;
64199;SDS011;50516;52.272;5.136;2023-03-31T05:59:14;12.65;;;3.15;;
64199;SDS011;50516;52.272;5.136;2023-03-31T06:01:40;9.45;;;3.15;;
64199;SDS011;50516;52.272;5.136;2023-03-31T06:04:05;11.90;;;3.40;;
64199;SDS011;50516;52.272;5.136;2023-03-31T06:06:31;9.18;;;3.90;;
64199;SDS011;50516;52.272;5.136;2023-03-31T06:08:57;9.63;;;3.53;;
64199;SDS011;50516;52.272;5.136;2023-03-31T06:11:22;10.68;;;3.25;;
64199;SDS011;50516;52.272;5.136;2023-03-31T06:13:48;8.25;;;3.20;;
64199;SDS011;50516;52.272;5.136;2023-03-31T06:16:15;12.68;;;4.88;;
64199;SDS011;50516;52.272;5.136;2023-03-31T06:18:41;9.73;;;3.03;;
64199;SDS011;50516;52.272;5.136;2023-03-31T06:21:07;13.45;;;3.47;;
64199;SDS011;50516;52.272;5.136;2023-03-31T06:23:34;10.13;;;3.80;;
64199;SDS011;50516;52.272;5.136;2023-03-31T06:26:01;11.88;;;3.35;;
64199;SDS011;50516;52.272;5.136;2023-03-31T06:28:32;16.08;;;3.83;;
64199;SDS011;50516;52.272;5.136;2023-03-31T06:31:02;11.00;;;3.33;;
64199;SDS011;50516;52.272;5.136;2023-03-31T06:33:32;8.88;;;3.15;;
64199;SDS011;50516;52.272;5.136;2023-03-31T06:35:58;9.18;;;3.40;;
64199;SDS011;50516;52.272;5.136;2023-03-31T06:38:25;9.88;;;2.83;;
64199;SDS011;50516;52.272;5.136;2023-03-31T06:40:52;7.90;;;2.85;;
64199;SDS011;50516;52.272;5.136;2023-03-31T06:43:17;7.85;;;3.42;;
64199;SDS011;50516;52.272;5.136;2023-03-31T06:45:43;8.48;;;3.30;;
64199;SDS011;50516;52.272;5.136;2023-03-31T06:48:08;12.18;;;3.20;;
64199;SDS011;50516;52.272;5.136;2023-03-31T06:50:36;10.32;;;3.22;;
64199;SDS011;50516;52.272;5.136;2023-03-31T06:53:02;12.45;;;3.58;;
64199;SDS011;50516;52.272;5.136;2023-03-31T06:55:28;12.48;;;3.58;;
64199;SDS011;50516;52.272;5.136;2023-03-31T06:57:53;8.85;;;2.95;;
64199;SDS011;50516;52.272;5.136;2023-03-31T07:00:18;9.98;;;3.03;;
64199;SDS011;50516;52.272;5.136;2023-03-31T07:02:44;6.20;;;2.83;;
64199;SDS011;50516;52.272;5.136;2023-03-31T07:05:09;8.73;;;2.83;;
64199;SDS011;50516;52.272;5.136;2023-03-31T07:07:35;10.45;;;3.10;;
64199;SDS011;50516;52.272;5.136;2023-03-31T07:10:00;7.05;;;2.40;;
64199;SDS011;50516;52.272;5.136;2023-03-31T07:12:25;9.70;;;3.08;;
64199;SDS011;50516;52.272;5.136;2023-03-31T07:14:51;11.40;;;3.20;;
64199;SDS011;50516;52.272;5.136;2023-03-31T07:17:16;6.00;;;2.40;;
64199;SDS011;50516;52.272;5.136;2023-03-31T07:19:41;7.70;;;2.53;;
64199;SDS011;50516;52.272;5.136;2023-03-31T07:22:12;6.38;;;3.03;;
64199;SDS011;50516;52.272;5.136;2023-03-31T07:24:38;12.50;;;3.40;;
64199;SDS011;50516;52.272;5.136;2023-03-31T07:27:04;8.27;;;3.00;;
64199;SDS011;50516;52.272;5.136;2023-03-31T07:29:29;7.82;;;2.72;;
64199;SDS011;50516;52.272;5.136;2023-03-31T07:31:55;6.85;;;3.55;;
64199;SDS011;50516;52.272;5.136;2023-03-31T07:34:20;6.03;;;2.63;;
64199;SDS011;50516;52.272;5.136;2023-03-31T07:36:45;7.47;;;2.92;;
64199;SDS011;50516;52.272;5.136;2023-03-31T07:39:11;4.78;;;2.08;;
64199;SDS011;50516;52.272;5.136;2023-03-31T07:41:36;7.35;;;2.50;;
64199;SDS011;50516;52.272;5.136;2023-03-31T07:44:01;7.43;;;2.28;;
64199;SDS011;50516;52.272;5.136;2023-03-31T07:46:27;9.82;;;2.45;;
64199;SDS011;50516;52.272;5.136;2023-03-31T07:48:54;9.27;;;2.75;;
64199;SDS011;50516;52.272;5.136;2023-03-31T07:51:22;8.00;;;3.58;;
64199;SDS011;50516;52.272;5.136;2023-03-31T07:53:49;8.90;;;2.47;;
64199;SDS011;50516;52.272;5.136;2023-03-31T07:56:17;9.73;;;2.85;;
64199;SDS011;50516;52.272;5.136;2023-03-31T07:58:43;6.07;;;2.50;;
64199;SDS011;50516;52.272;5.136;2023-03-31T08:01:12;7.50;;;2.88;;
64199;SDS011;50516;52.272;5.136;2023-03-31T08:03:41;6.88;;;2.30;;
64199;SDS011;50516;52.272;5.136;2023-03-31T08:06:07;5.78;;;2.40;;
64199;SDS011;50516;52.272;5.136;2023-03-31T08:08:32;7.60;;;2.40;;
64199;SDS011;50516;52.272;5.136;2023-03-31T08:10:58;6.65;;;2.80;;
64199;SDS011;50516;52.272;5.136;2023-03-31T08:13:23;13.50;;;3.22;;
64199;SDS011;50516;52.272;5.136;2023-03-31T08:15:49;6.55;;;2.80;;
64199;SDS011;50516;52.272;5.136;2023-03-31T08:18:15;9.68;;;3.10;;
64199;SDS011;50516;52.272;5.136;2023-03-31T08:20:41;9.48;;;3.17;;
64199;SDS011;50516;52.272;5.136;2023-03-31T08:23:06;8.65;;;3.45;;
64199;SDS011;50516;52.272;5.136;2023-03-31T08:25:35;7.72;;;3.15;;
64199;SDS011;50516;52.272;5.136;2023-03-31T08:28:01;12.18;;;4.28;;
64199;SDS011;50516;52.272;5.136;2023-03-31T08:30:26;8.73;;;3.13;;
64199;SDS011;50516;52.272;5.136;2023-03-31T08:32:56;10.80;;;3.25;;
64199;SDS011;50516;52.272;5.136;2023-03-31T08:35:21;8.80;;;3.33;;
64199;SDS011;50516;52.272;5.136;2023-03-31T08:37:46;8.52;;;3.10;;
64199;SDS011;50516;52.272;5.136;2023-03-31T08:40:15;9.93;;;3.58;;
64199;SDS011;50516;52.272;5.136;2023-03-31T08:42:45;10.00;;;3.85;;
64199;SDS011;50516;52.272;5.136;2023-03-31T08:45:25;12.48;;;3.70;;
64199;SDS011;50516;52.272;5.136;2023-03-31T08:48:20;12.45;;;4.32;;
64199;SDS011;50516;52.272;5.136;2023-03-31T08:50:47;9.88;;;3.83;;
64199;SDS011;50516;52.272;5.136;2023-03-31T08:53:28;13.55;;;4.25;;
64199;SDS011;50516;52.272;5.136;2023-03-31T08:55:57;12.10;;;3.45;;
64199;SDS011;50516;52.272;5.136;2023-03-31T09:04:22;11.83;;;3.60;;
64199;SDS011;50516;52.272;5.136;2023-03-31T09:12:15;16.63;;;4.65;;
64199;SDS011;50516;52.272;5.136;2023-03-31T09:14:54;8.55;;;3.50;;
64199;SDS011;50516;52.272;5.136;2023-03-31T09:17:26;15.48;;;4.22;;
64199;SDS011;50516;52.272;5.136;2023-03-31T09:19:56;11.07;;;3.40;;
64199;SDS011;50516;52.272;5.136;2023-03-31T09:22:30;8.75;;;3.40;;
64199;SDS011;50516;52.272;5.136;2023-03-31T09:24:59;12.98;;;3.55;;
64199;SDS011;50516;52.272;5.136;2023-03-31T09:27:30;7.15;;;3.80;;
64199;SDS011;50516;52.272;5.136;2023-03-31T09:30:01;10.75;;;4.15;;
64199;SDS011;50516;52.272;5.136;2023-03-31T09:35:12;9.93;;;3.90;;
64199;SDS011;50516;52.272;5.136;2023-03-31T09:37:43;14.57;;;4.60;;
64199;SDS011;50516;52.272;5.136;2023-03-31T09:40:16;14.25;;;4.03;;
64199;SDS011;50516;52.272;5.136;2023-03-31T09:42:44;17.85;;;4.95;;
64199;SDS011;50516;52.272;5.136;2023-03-31T09:45:14;15.35;;;4.22;;
64199;SDS011;50516;52.272;5.136;2023-03-31T09:47:41;15.73;;;4.28;;
64199;SDS011;50516;52.272;5.136;2023-03-31T09:50:09;14.43;;;4.20;;
64199;SDS011;50516;52.272;5.136;2023-03-31T09:52:42;13.18;;;4.38;;
64199;SDS011;50516;52.272;5.136;2023-03-31T09:55:23;19.95;;;5.68;;
64199;SDS011;50516;52.272;5.136;2023-03-31T09:57:51;13.77;;;3.95;;
64199;SDS011;50516;52.272;5.136;2023-03-31T10:00:18;18.27;;;4.78;;
64199;SDS011;50516;52.272;5.136;2023-03-31T10:02:55;16.23;;;4.93;;
64199;SDS011;50516;52.272;5.136;2023-03-31T10:05:29;20.45;;;4.70;;
64199;SDS011;50516;52.272;5.136;2023-03-31T10:10:48;12.13;;;3.63;;
64199;SDS011;50516;52.272;5.136;2023-03-31T10:13:16;14.75;;;3.72;;
64199;SDS011;50516;52.272;5.136;2023-03-31T10:15:51;13.95;;;4.32;;
64199;SDS011;50516;52.272;5.136;2023-03-31T10:18:18;15.27;;;4.93;;
64199;SDS011;50516;52.272;5.136;2023-03-31T10:20:48;20.08;;;4.57;;
64199;SDS011;50516;52.272;5.136;2023-03-31T10:25:46;22.65;;;5.05;;
64199;SDS011;50516;52.272;5.136;2023-03-31T10:28:14;17.60;;;4.95;;
64199;SDS011;50516;52.272;5.136;2023-03-31T10:30:45;19.63;;;4.85;;
64199;SDS011;50516;52.272;5.136;2023-03-31T10:33:18;13.77;;;4.28;;
64199;SDS011;50516;52.272;5.136;2023-03-31T10:35:59;12.57;;;3.63;;
64199;SDS011;50516;52.272;5.136;2023-03-31T10:38:30;16.85;;;4.32;;
64199;SDS011;50516;52.272;5.136;2023-03-31T10:41:00;20.92;;;5.28;;
64199;SDS011;50516;52.272;5.136;2023-03-31T10:43:32;19.23;;;4.28;;
64199;SDS011;50516;52.272;5.136;2023-03-31T10:46:02;20.17;;;4.90;;
64199;SDS011;50516;52.272;5.136;2023-03-31T10:48:30;20.05;;;4.50;;
64199;SDS011;50516;52.272;5.136;2023-03-31T10:50:58;21.25;;;4.97;;
64199;SDS011;50516;52.272;5.136;2023-03-31T10:53:40;16.40;;;4.53;;
64199;SDS011;50516;52.272;5.136;2023-03-31T11:23:22;15.30;;;4.35;;
64199;SDS011;50516;52.272;5.136;2023-03-31T11:34:25;14.38;;;4.57;;
64199;SDS011;50516;52.272;5.136;2023-03-31T11:40:08;11.18;;;3.75;;
64199;SDS011;50516;52.272;5.136;2023-03-31T11:42:54;12.75;;;3.58;;
64199;SDS011;50516;52.272;5.136;2023-03-31T11:48:40;13.07;;;3.35;;
64199;SDS011;50516;52.272;5.136;2023-03-31T11:51:13;12.27;;;3.53;;
64199;SDS011;50516;52.272;5.136;2023-03-31T11:53:43;7.50;;;3.50;;
64199;SDS011;50516;52.272;5.136;2023-03-31T11:56:10;14.20;;;3.85;;
64199;SDS011;50516;52.272;5.136;2023-03-31T11:58:39;10.98;;;3.85;;
64199;SDS011;50516;52.272;5.136;2023-03-31T12:06:34;13.10;;;4.10;;
64199;SDS011;50516;52.272;5.136;2023-03-31T12:09:13;16.13;;;4.10;;
64199;SDS011;50516;52.272;5.136;2023-03-31T12:11:48;13.80;;;4.00;;
64199;SDS011;50516;52.272;5.136;2023-03-31T12:14:21;10.25;;;3.15;;
64199;SDS011;50516;52.272;5.136;2023-03-31T12:17:19;10.15;;;3.10;;
64199;SDS011;50516;52.272;5.136;2023-03-31T12:22:29;11.23;;;2.67;;
64199;SDS011;50516;52.272;5.136;2023-03-31T12:25:00;10.82;;;3.25;;
64199;SDS011;50516;52.272;5.136;2023-03-31T12:39:09;9.90;;;2.35;;
64199;SDS011;50516;52.272;5.136;2023-03-31T12:41:39;9.23;;;2.83;;
64199;SDS011;50516;52.272;5.136;2023-03-31T12:52:41;7.60;;;2.15;;
64199;SDS011;50516;52.272;5.136;2023-03-31T12:58:01;7.10;;;2.58;;
64199;SDS011;50516;52.272;5.136;2023-03-31T13:03:53;8.35;;;2.95;;
64199;SDS011;50516;52.272;5.136;2023-03-31T13:09:20;10.38;;;3.03;;
64199;SDS011;50516;52.272;5.136;2023-03-31T13:11:53;10.27;;;3.15;;
64199;SDS011;50516;52.272;5.136;2023-03-31T13:14:19;10.00;;;3.78;;
64199;SDS011;50516;52.272;5.136;2023-03-31T13:16:46;8.27;;;2.92;;
64199;SDS011;50516;52.272;5.136;2023-03-31T13:19:26;9.38;;;3.17;;
64199;SDS011;50516;52.272;5.136;2023-03-31T13:21:56;10.18;;;3.22;;
64199;SDS011;50516;52.272;5.136;2023-03-31T13:24:24;10.13;;;3.67;;
64199;SDS011;50516;52.272;5.136;2023-03-31T13:26:51;8.10;;;3.00;;
64199;SDS011;50516;52.272;5.136;2023-03-31T13:29:22;9.88;;;3.15;;
64199;SDS011;50516;52.272;5.136;2023-03-31T13:34:43;13.18;;;2.72;;
64199;SDS011;50516;52.272;5.136;2023-03-31T13:45:21;8.57;;;3.72;;
64199;SDS011;50516;52.272;5.136;2023-03-31T13:59:27;7.05;;;2.80;;
64199;SDS011;50516;52.272;5.136;2023-03-31T14:07:47;10.35;;;2.78;;
64199;SDS011;50516;52.272;5.136;2023-03-31T14:10:26;11.45;;;2.90;;
64199;SDS011;50516;52.272;5.136;2023-03-31T14:18:21;9.32;;;2.75;;
64199;SDS011;50516;52.272;5.136;2023-03-31T14:21:00;13.02;;;3.35;;
64199;SDS011;50516;52.272;5.136;2023-03-31T14:23:38;8.85;;;2.80;;
64199;SDS011;50516;52.272;5.136;2023-03-31T14:26:15;9.45;;;3.25;;
64199;SDS011;50516;52.272;5.136;2023-03-31T14:28:46;7.50;;;2.97;;
64199;SDS011;50516;52.272;5.136;2023-03-31T14:31:40;9.18;;;3.17;;
64199;SDS011;50516;52.272;5.136;2023-03-31T14:37:18;8.05;;;2.65;;
64199;SDS011;50516;52.272;5.136;2023-03-31T14:39:47;8.18;;;2.83;;
64199;SDS011;50516;52.272;5.136;2023-03-31T14:42:16;7.82;;;2.88;;
64199;SDS011;50516;52.272;5.136;2023-03-31T14:44:44;9.50;;;2.92;;
64199;SDS011;50516;52.272;5.136;2023-03-31T14:47:18;9.38;;;3.03;;
64199;SDS011;50516;52.272;5.136;2023-03-31T14:49:46;8.60;;;2.60;;
64199;SDS011;50516;52.272;5.136;2023-03-31T14:52:16;6.97;;;1.90;;
64199;SDS011;50516;52.272;5.136;2023-03-31T14:54:44;11.57;;;2.83;;
64199;SDS011;50516;52.272;5.136;2023-03-31T14:57:16;5.68;;;1.95;;
64199;SDS011;50516;52.272;5.136;2023-03-31T14:59:45;7.32;;;2.20;;
64199;SDS011;50516;52.272;5.136;2023-03-31T15:02:15;4.40;;;1.92;;
64199;SDS011;50516;52.272;5.136;2023-03-31T15:04:43;8.35;;;2.47;;
64199;SDS011;50516;52.272;5.136;2023-03-31T15:07:13;7.18;;;2.28;;
64199;SDS011;50516;52.272;5.136;2023-03-31T15:09:40;7.60;;;2.50;;
64199;SDS011;50516;52.272;5.136;2023-03-31T15:12:14;7.07;;;2.38;;
64199;SDS011;50516;52.272;5.136;2023-03-31T15:14:44;4.82;;;2.60;;
64199;SDS011;50516;52.272;5.136;2023-03-31T15:17:31;5.95;;;2.35;;
64199;SDS011;50516;52.272;5.136;2023-03-31T15:20:01;5.70;;;2.53;;
64199;SDS011;50516;52.272;5.136;2023-03-31T15:22:44;5.05;;;2.30;;
64199;SDS011;50516;52.272;5.136;2023-03-31T15:25:13;6.75;;;2.47;;
64199;SDS011;50516;52.272;5.136;2023-03-31T15:27:42;5.47;;;2.40;;
64199;SDS011;50516;52.272;5.136;2023-03-31T15:30:17;6.30;;;2.35;;
64199;SDS011;50516;52.272;5.136;2023-03-31T15:32:45;7.72;;;2.95;;
64199;SDS011;50516;52.272;5.136;2023-03-31T15:35:21;5.45;;;2.95;;
64199;SDS011;50516;52.272;5.136;2023-03-31T15:37:51;7.75;;;3.05;;
64199;SDS011;50516;52.272;5.136;2023-03-31T15:40:27;7.35;;;2.80;;
64199;SDS011;50516;52.272;5.136;2023-03-31T15:42:55;4.90;;;2.27;;
64199;SDS011;50516;52.272;5.136;2023-03-31T15:45:34;8.82;;;2.83;;
64199;SDS011;50516;52.272;5.136;2023-03-31T15:48:32;6.15;;;3.20;;
64199;SDS011;50516;52.272;5.136;2023-03-31T15:51:02;6.90;;;3.15;;
64199;SDS011;50516;52.272;5.136;2023-03-31T15:53:34;5.20;;;2.40;;
64199;SDS011;50516;52.272;5.136;2023-03-31T15:56:02;4.78;;;2.70;;
64199;SDS011;50516;52.272;5.136;2023-03-31T15:58:51;6.53;;;3.47;;
64199;SDS011;50516;52.272;5.136;2023-03-31T16:01:19;5.15;;;2.60;;
64199;SDS011;50516;52.272;5.136;2023-03-31T16:03:45;5.75;;;2.75;;
64199;SDS011;50516;52.272;5.136;2023-03-31T16:11:46;6.82;;;2.97;;
64199;SDS011;50516;52.272;5.136;2023-03-31T16:14:18;5.32;;;2.60;;
64199;SDS011;50516;52.272;5.136;2023-03-31T16:16:55;7.97;;;3.00;;
64199;SDS011;50516;52.272;5.136;2023-03-31T16:19:25;8.20;;;3.10;;
64199;SDS011;50516;52.272;5.136;2023-03-31T16:21:55;7.32;;;3.08;;
64199;SDS011;50516;52.272;5.136;2023-03-31T16:24:29;9.52;;;2.95;;
64199;SDS011;50516;52.272;5.136;2023-03-31T16:27:01;9.10;;;2.65;;
64199;SDS011;50516;52.272;5.136;2023-03-31T16:29:31;8.32;;;3.03;;
64199;SDS011;50516;52.272;5.136;2023-03-31T16:32:13;6.25;;;2.80;;
64199;SDS011;50516;52.272;5.136;2023-03-31T16:35:02;6.32;;;2.72;;
64199;SDS011;50516;52.272;5.136;2023-03-31T16:37:29;3.83;;;2.40;;
64199;SDS011;50516;52.272;5.136;2023-03-31T16:39:54;7.03;;;2.80;;
64199;SDS011;50516;52.272;5.136;2023-03-31T16:42:20;6.47;;;2.80;;
64199;SDS011;50516;52.272;5.136;2023-03-31T16:44:46;6.40;;;2.63;;
64199;SDS011;50516;52.272;5.136;2023-03-31T16:47:11;6.40;;;2.50;;
64199;SDS011;50516;52.272;5.136;2023-03-31T16:49:37;5.82;;;2.30;;
64199;SDS011;50516;52.272;5.136;2023-03-31T16:52:03;5.10;;;2.75;;
64199;SDS011;50516;52.272;5.136;2023-03-31T16:54:29;8.30;;;2.92;;
64199;SDS011;50516;52.272;5.136;2023-03-31T16:56:55;7.78;;;2.45;;
64199;SDS011;50516;52.272;5.136;2023-03-31T16:59:21;5.45;;;3.22;;
64199;SDS011;50516;52.272;5.136;2023-03-31T17:01:47;7.93;;;2.67;;
64199;SDS011;50516;52.272;5.136;2023-03-31T17:04:12;8.48;;;2.78;;
64199;SDS011;50516;52.272;5.136;2023-03-31T17:06:38;4.72;;;2.33;;
64199;SDS011;50516;52.272;5.136;2023-03-31T17:09:03;6.75;;;2.67;;
64199;SDS011;50516;52.272;5.136;2023-03-31T17:11:29;5.70;;;2.65;;
64199;SDS011;50516;52.272;5.136;2023-03-31T17:13:54;4.68;;;2.50;;
64199;SDS011;50516;52.272;5.136;2023-03-31T17:16:20;5.88;;;2.70;;
64199;SDS011;50516;52.272;5.136;2023-03-31T17:18:46;6.35;;;2.67;;
64199;SDS011;50516;52.272;5.136;2023-03-31T17:21:12;3.65;;;2.45;;
64199;SDS011;50516;52.272;5.136;2023-03-31T17:23:39;2.53;;;2.30;;
64199;SDS011;50516;52.272;5.136;2023-03-31T17:26:05;3.83;;;2.47;;
64199;SDS011;50516;52.272;5.136;2023-03-31T17:28:33;4.60;;;2.72;;
64199;SDS011;50516;52.272;5.136;2023-03-31T17:30:59;6.43;;;2.80;;
64199;SDS011;50516;52.272;5.136;2023-03-31T17:33:25;5.45;;;2.80;;
64199;SDS011;50516;52.272;5.136;2023-03-31T17:35:55;4.72;;;2.55;;
64199;SDS011;50516;52.272;5.136;2023-03-31T17:38:22;4.90;;;2.53;;
64199;SDS011;50516;52.272;5.136;2023-03-31T17:40:47;4.53;;;2.60;;
64199;SDS011;50516;52.272;5.136;2023-03-31T17:43:14;5.47;;;2.88;;
64199;SDS011;50516;52.272;5.136;2023-03-31T17:45:39;4.80;;;2.92;;
64199;SDS011;50516;52.272;5.136;2023-03-31T17:48:05;4.45;;;2.75;;
64199;SDS011;50516;52.272;5.136;2023-03-31T17:50:30;6.35;;;2.97;;
64199;SDS011;50516;52.272;5.136;2023-03-31T17:52:57;4.50;;;2.70;;
64199;SDS011;50516;52.272;5.136;2023-03-31T17:55:22;5.40;;;2.90;;
64199;SDS011;50516;52.272;5.136;2023-03-31T17:57:48;5.30;;;2.70;;
64199;SDS011;50516;52.272;5.136;2023-03-31T18:00:14;7.00;;;3.45;;
64199;SDS011;50516;52.272;5.136;2023-03-31T18:02:40;6.13;;;3.20;;
64199;SDS011;50516;52.272;5.136;2023-03-31T18:05:06;4.15;;;2.75;;
64199;SDS011;50516;52.272;5.136;2023-03-31T18:07:33;6.30;;;2.97;;